createdAt,value
2022-10-04T00:01:30.147Z,100588.34
2022-10-04T00:03:41.195Z,100584.69
2022-10-04T00:05:49.648Z,100568.53
2022-10-04T00:07:56.878Z,100569.53
2022-10-04T00:10:04.047Z,100576.53
2022-10-04T00:12:08.491Z,100584.41
2022-10-04T00:14:18.091Z,100595.97
2022-10-04T00:16:27.455Z,100592.19
2022-10-04T00:18:33.122Z,100597.38
2022-10-04T00:21:03.797Z,100593.72
2022-10-04T00:23:30.943Z,100604.13
2022-10-04T00:25:37.683Z,100581.78
2022-10-04T00:27:40.951Z,100595.13
2022-10-04T00:29:44.191Z,100589.78
2022-10-04T00:32:20.792Z,100597.81
2022-10-04T00:34:47.423Z,100581.06
2022-10-04T00:36:55.888Z,100581.06
2022-10-04T00:39:32.322Z,100558.84
2022-10-04T00:41:40.199Z,100582.03
2022-10-04T00:43:49.619Z,100556.31
2022-10-04T00:45:55.789Z,100550.97
2022-10-04T00:48:31.062Z,100527.91
2022-10-04T00:50:39.905Z,100550.25
2022-10-04T00:52:48.734Z,100550.25
2022-10-04T00:54:56.561Z,100544.09
2022-10-04T00:57:03.911Z,100543.06
2022-10-04T00:59:30.756Z,100534.94
2022-10-04T01:01:38.103Z,100525.91
2022-10-04T01:03:44.919Z,100522.28
2022-10-04T01:05:52.097Z,100525.66
2022-10-04T01:08:00.604Z,100504.28
2022-10-04T01:10:10.004Z,100517.34
2022-10-04T01:12:21.432Z,100495.09
2022-10-04T01:14:35.533Z,100490.47
2022-10-04T01:16:40.193Z,100495.81
2022-10-04T01:18:43.485Z,100502.88
2022-10-04T01:20:56.513Z,100501.16
2022-10-04T01:23:01.069Z,100510.03
2022-10-04T01:25:04.949Z,100492.31
2022-10-04T01:27:42.505Z,100498.66
2022-10-04T01:29:45.811Z,100496.94
2022-10-04T01:31:51.519Z,100512.97
2022-10-04T01:33:56.017Z,100508.47
2022-10-04T01:35:59.621Z,100511.03
2022-10-04T01:38:05.099Z,100512.00
2022-10-04T01:40:10.708Z,100497.66
2022-10-04T01:42:19.906Z,100485.28
2022-10-04T01:44:32.235Z,100476.41
2022-10-04T01:46:38.571Z,100478.09
2022-10-04T01:48:45.577Z,100460.38
2022-10-04T01:50:55.808Z,100482.63
2022-10-04T01:53:08.403Z,100464.88
2022-10-04T01:55:16.892Z,100453.38
2022-10-04T01:57:24.653Z,100444.34
2022-10-04T01:59:33.721Z,100443.50
2022-10-04T02:01:42.746Z,100448.84
2022-10-04T02:03:52.624Z,100444.47
2022-10-04T02:06:00.538Z,100438.16
2022-10-04T02:08:06.528Z,100445.19
2022-10-04T02:10:14.357Z,100438.16
2022-10-04T02:12:19.998Z,100414.81
2022-10-04T02:14:26.954Z,100424.50
2022-10-04T02:16:33.194Z,100414.69
2022-10-04T02:18:39.751Z,100402.13
2022-10-04T02:20:44.220Z,100407.50
2022-10-04T02:22:51.111Z,100392.28
2022-10-04T02:24:57.674Z,100402.13
2022-10-04T02:27:01.052Z,100375.41
2022-10-04T02:29:04.411Z,100384.41
2022-10-04T02:31:26.655Z,100385.44
2022-10-04T02:33:31.358Z,100383.59
2022-10-04T02:35:37.751Z,100368.53
2022-10-04T02:37:41.096Z,100379.22
2022-10-04T02:39:48.407Z,100365.03
2022-10-04T02:41:55.701Z,100379.22
2022-10-04T02:44:04.845Z,100359.53
2022-10-04T02:46:15.203Z,100360.50
2022-10-04T02:48:35.979Z,100347.00
2022-10-04T02:50:46.513Z,100340.69
2022-10-04T02:52:56.279Z,100332.66
2022-10-04T02:55:05.633Z,100329.00
2022-10-04T02:57:16.455Z,100337.03
2022-10-04T02:59:19.849Z,100321.97
2022-10-04T03:01:30.137Z,100327.31
2022-10-04T03:03:37.088Z,100324.78
2022-10-04T03:05:41.905Z,100330.97
2022-10-04T03:07:45.233Z,100317.75
2022-10-04T03:09:49.140Z,100316.94
2022-10-04T03:11:53.156Z,100316.22
2022-10-04T03:13:59.889Z,100327.75
2022-10-04T03:16:03.301Z,100328.75
2022-10-04T03:18:06.962Z,100328.03
2022-10-04T03:20:16.282Z,100324.53
2022-10-04T03:22:20.383Z,100327.34
2022-10-04T03:24:29.149Z,100331.72
2022-10-04T03:26:37.942Z,100328.19
2022-10-04T03:28:41.701Z,100318.22
2022-10-04T03:30:45.993Z,100324.53
2022-10-04T03:32:50.515Z,100304.84
2022-10-04T03:34:57.272Z,100299.50
2022-10-04T03:37:03.381Z,100300.34
2022-10-04T03:39:10.631Z,100299.34
2022-10-04T03:41:16.002Z,100309.06
2022-10-04T03:43:19.833Z,100287.69
2022-10-04T03:45:24.824Z,100288.50
2022-10-04T03:47:32.116Z,100291.34
2022-10-04T03:49:38.415Z,100301.88
2022-10-04T03:51:47.944Z,100294.69
2022-10-04T03:53:55.697Z,100267.13
2022-10-04T03:56:04.268Z,100277.81
2022-10-04T03:58:11.161Z,100284.84
2022-10-04T04:00:18.305Z,100283.03
2022-10-04T04:02:32.397Z,100257.16
2022-10-04T04:04:46.955Z,100281.22
2022-10-04T04:06:59.144Z,100286.56
2022-10-04T04:09:07.831Z,100266.00
2022-10-04T04:11:20.037Z,100273.03
2022-10-04T04:13:27.287Z,100266.69
2022-10-04T04:15:33.564Z,100273.88
2022-10-04T04:17:41.357Z,100257.53
2022-10-04T04:19:46.416Z,100255.72
2022-10-04T04:21:51.250Z,100252.19
2022-10-04T04:23:59.844Z,100262.88
2022-10-04T04:26:19.854Z,100262.88
2022-10-04T04:28:27.578Z,100267.38
2022-10-04T04:30:32.998Z,100252.19
2022-10-04T04:32:40.279Z,100263.88
2022-10-04T04:34:53.010Z,100271.91
2022-10-04T04:37:00.252Z,100239.84
2022-10-04T04:39:32.970Z,100245.84
2022-10-04T04:41:38.081Z,100238.66
2022-10-04T04:43:45.190Z,100235.16
2022-10-04T04:46:08.599Z,100219.00
2022-10-04T04:48:17.389Z,100220.97
2022-10-04T04:50:23.899Z,100227.16
2022-10-04T04:52:31.525Z,100213.66
2022-10-04T04:54:35.046Z,100217.19
2022-10-04T04:56:39.711Z,100219.00
2022-10-04T04:58:46.716Z,100210.13
2022-10-04T05:00:57.177Z,100202.97
2022-10-04T05:03:02.600Z,100211.84
2022-10-04T05:05:20.686Z,100227.88
2022-10-04T05:07:24.199Z,100216.19
2022-10-04T05:09:30.924Z,100216.19
2022-10-04T05:11:37.557Z,100221.53
2022-10-04T05:13:47.515Z,100226.88
2022-10-04T05:15:55.200Z,100205.50
2022-10-04T05:17:59.615Z,100192.28
2022-10-04T05:20:04.800Z,100207.63
2022-10-04T05:22:11.851Z,100195.38
2022-10-04T05:24:21.761Z,100180.50
2022-10-04T05:26:29.089Z,100185.00
2022-10-04T05:28:34.379Z,100194.97
2022-10-04T05:30:48.840Z,100193.28
2022-10-04T05:33:01.196Z,100180.94
2022-10-04T05:35:16.188Z,100169.56
2022-10-04T05:37:29.664Z,100186.72
2022-10-04T05:39:39.907Z,100178.19
2022-10-04T05:41:53.635Z,100165.09
2022-10-04T05:43:56.920Z,100170.75
2022-10-04T05:46:21.673Z,100166.53
2022-10-04T05:48:26.593Z,100162.34
2022-10-04T05:50:32.821Z,100163.31
2022-10-04T05:52:38.523Z,100157.16
2022-10-04T05:54:41.901Z,100162.63
2022-10-04T05:57:08.322Z,100145.63
2022-10-04T05:59:25.602Z,100151.97
2022-10-04T06:01:41.432Z,100157.97
2022-10-04T06:04:16.539Z,100152.50
2022-10-04T06:06:25.620Z,100169.22
2022-10-04T06:08:52.766Z,100158.94
2022-10-04T06:11:14.670Z,100157.50
2022-10-04T06:13:40.097Z,100153.53
2022-10-04T06:16:09.578Z,100154.91
2022-10-04T06:18:46.326Z,100150.94
2022-10-04T06:21:27.791Z,100155.97
2022-10-04T06:23:34.629Z,100169.19
2022-10-04T06:25:41.773Z,100163.75
2022-10-04T06:27:54.307Z,100152.91
2022-10-04T06:30:03.178Z,100151.06
2022-10-04T06:32:37.291Z,100151.22
2022-10-04T06:35:09.812Z,100143.31
2022-10-04T06:37:33.394Z,100135.63
2022-10-04T06:40:02.925Z,100140.25
2022-10-04T06:42:17.483Z,100134.22
2022-10-04T06:44:46.409Z,100127.50
2022-10-04T06:46:52.215Z,100126.81
2022-10-04T06:49:09.903Z,100136.66
2022-10-04T06:51:24.962Z,100146.50
2022-10-04T06:53:40.564Z,100136.66
2022-10-04T06:56:07.494Z,100136.50
2022-10-04T06:58:46.593Z,100135.22
2022-10-04T07:00:57.806Z,100143.75
2022-10-04T07:03:05.953Z,100130.94
2022-10-04T07:05:20.150Z,100139.53
2022-10-04T07:07:38.327Z,100134.03
2022-10-04T07:09:43.727Z,100134.72
2022-10-04T07:11:54.331Z,100137.38
2022-10-04T07:14:06.692Z,100123.91
2022-10-04T07:16:23.840Z,100131.06
2022-10-04T07:18:32.974Z,100140.75
2022-10-04T07:20:38.998Z,100142.44
2022-10-04T07:22:50.527Z,100140.44
2022-10-04T07:25:08.706Z,100150.16
2022-10-04T07:27:17.789Z,100164.19
2022-10-04T07:29:26.472Z,100160.38
2022-10-04T07:31:34.797Z,100154.88
2022-10-04T07:33:46.098Z,100147.56
2022-10-04T07:35:54.563Z,100145.72
2022-10-04T07:38:10.863Z,100144.72
2022-10-04T07:40:24.006Z,100134.75
2022-10-04T07:42:29.548Z,100147.94
2022-10-04T07:44:37.843Z,100151.28
2022-10-04T07:46:54.262Z,100157.34
2022-10-04T07:48:59.131Z,100153.66
2022-10-04T07:51:10.170Z,100160.69
2022-10-04T07:53:19.594Z,100155.19
2022-10-04T07:55:29.122Z,100173.06
2022-10-04T07:57:41.652Z,100187.28
2022-10-04T07:59:55.684Z,100172.91
2022-10-04T08:02:12.186Z,100171.06
2022-10-04T08:04:38.304Z,100181.50
2022-10-04T08:06:56.359Z,100181.16
2022-10-04T08:09:30.014Z,100186.91
2022-10-04T08:11:44.893Z,100174.22
2022-10-04T08:13:55.187Z,100179.28
2022-10-04T08:16:04.648Z,100181.78
2022-10-04T08:18:23.867Z,100190.47
2022-10-04T08:20:46.967Z,100197.53
2022-10-04T08:23:03.252Z,100203.72
2022-10-04T08:25:16.916Z,100186.81
2022-10-04T08:27:33.718Z,100189.34
2022-10-04T08:30:02.749Z,100196.69
2022-10-04T08:32:15.585Z,100203.03
2022-10-04T08:34:32.199Z,100193.00
2022-10-04T08:36:54.025Z,100189.66
2022-10-04T08:38:59.590Z,100198.50
2022-10-04T08:41:35.667Z,100203.88
2022-10-04T08:44:13.767Z,100204.72
2022-10-04T08:46:52.176Z,100213.56
2022-10-04T08:49:43.433Z,100210.75
2022-10-04T08:52:27.422Z,100203.41
2022-10-04T08:55:01.636Z,100201.41
2022-10-04T08:57:19.282Z,100211.13
2022-10-04T08:59:50.269Z,100191.25
2022-10-04T09:02:19.103Z,100200.81
2022-10-04T09:04:53.597Z,100173.75
2022-10-04T09:07:15.076Z,100190.47
2022-10-04T09:09:53.081Z,100189.16
2022-10-04T09:12:13.025Z,100175.50
2022-10-04T09:14:40.206Z,100182.38
2022-10-04T09:16:47.841Z,100197.25
2022-10-04T09:19:22.057Z,100189.22
2022-10-04T09:21:51.014Z,100194.56
2022-10-04T09:24:30.179Z,100188.41
2022-10-04T09:26:46.493Z,100192.59
2022-10-04T09:29:32.955Z,100187.78
2022-10-04T09:32:18.228Z,100180.97
2022-10-04T09:34:37.659Z,100178.13
2022-10-04T09:37:10.946Z,100182.63
2022-10-04T09:39:38.735Z,100195.00
2022-10-04T09:42:11.176Z,100202.88
2022-10-04T09:44:54.902Z,100205.41
2022-10-04T09:47:31.528Z,100190.88
2022-10-04T09:49:59.142Z,100185.22
2022-10-04T09:52:19.614Z,100200.00
2022-10-04T09:54:50.981Z,100198.16
2022-10-04T09:57:19.628Z,100224.94
2022-10-04T09:59:47.960Z,100244.94
2022-10-04T10:02:14.898Z,100264.28
2022-10-04T10:04:37.445Z,100271.44
2022-10-04T10:06:56.754Z,100268.69
2022-10-04T10:09:12.628Z,100281.97
2022-10-04T10:11:43.906Z,100268.06
2022-10-04T10:14:20.320Z,100219.38
2022-10-04T10:16:42.397Z,100236.91
2022-10-04T10:19:00.859Z,100233.69
2022-10-04T10:21:28.393Z,100234.97
2022-10-04T10:24:01.629Z,100232.06
2022-10-04T10:26:32.488Z,100261.09
2022-10-04T10:29:02.897Z,100277.59
2022-10-04T10:31:29.612Z,100285.84
2022-10-04T10:33:57.367Z,100290.94
2022-10-04T10:36:23.831Z,100304.72
2022-10-04T10:38:49.966Z,100317.56
2022-10-04T10:41:23.391Z,100303.97
2022-10-04T10:43:46.777Z,100323.81
2022-10-04T10:46:06.458Z,100334.50
2022-10-04T10:48:18.900Z,100314.25
2022-10-04T10:51:00.295Z,100300.06
2022-10-04T10:53:48.663Z,100294.56
2022-10-04T10:56:26.698Z,100304.78
2022-10-04T10:58:58.521Z,100292.13
2022-10-04T11:01:34.058Z,100292.66
2022-10-04T11:04:19.415Z,100304.59
2022-10-04T11:06:49.363Z,100312.03
2022-10-04T11:09:20.138Z,100311.41
2022-10-04T11:11:42.162Z,100313.50
2022-10-04T11:14:22.221Z,100290.81
2022-10-04T11:17:09.834Z,100303.72
2022-10-04T11:19:42.131Z,100305.25
2022-10-04T11:22:14.378Z,100310.47
2022-10-04T11:24:45.784Z,100295.59
2022-10-04T11:27:15.306Z,100301.59
2022-10-04T11:29:36.988Z,100306.81
2022-10-04T11:31:59.771Z,100310.19
2022-10-04T11:34:29.696Z,100311.25
2022-10-04T11:36:57.281Z,100310.50
2022-10-04T11:39:35.886Z,100301.84
2022-10-04T11:41:52.728Z,100302.09
2022-10-04T11:44:16.860Z,100305.47
2022-10-04T11:46:33.920Z,100307.13
2022-10-04T11:48:54.180Z,100300.13
2022-10-04T11:51:36.302Z,100310.94
2022-10-04T11:54:18.369Z,100308.44
2022-10-04T11:56:45.885Z,100297.88
2022-10-04T11:59:19.490Z,100291.53
2022-10-04T12:01:50.937Z,100302.25
2022-10-04T12:04:15.657Z,100304.78
2022-10-04T12:06:36.006Z,100285.44
2022-10-04T12:08:53.284Z,100304.38
2022-10-04T12:12:07.747Z,100301.41
2022-10-04T12:14:26.737Z,100308.66
2022-10-04T12:16:52.372Z,100315.38
2022-10-04T12:19:22.379Z,100318.63
2022-10-04T12:21:42.733Z,100319.19
2022-10-04T12:24:04.398Z,100312.50
2022-10-04T12:26:44.571Z,100319.41
2022-10-04T12:29:11.814Z,100316.41
2022-10-04T12:31:25.712Z,100319.47
2022-10-04T12:33:37.049Z,100319.16
2022-10-04T12:36:00.684Z,100308.81
2022-10-04T12:38:29.021Z,100285.06
2022-10-04T12:40:38.659Z,100284.44
2022-10-04T12:42:53.690Z,100295.38
2022-10-04T12:45:16.241Z,100296.25
2022-10-04T12:47:49.564Z,100314.38
2022-10-04T12:50:04.798Z,100316.41
2022-10-04T12:52:17.667Z,100304.53
2022-10-04T12:54:41.742Z,100279.25
2022-10-04T12:56:51.633Z,100261.03
2022-10-04T12:59:17.973Z,100271.06
2022-10-04T13:01:33.558Z,100293.66
2022-10-04T13:04:01.280Z,100302.03
2022-10-04T13:06:16.663Z,100305.69
2022-10-04T13:08:33.810Z,100319.25
2022-10-04T13:11:04.754Z,100302.69
2022-10-04T13:13:50.708Z,100301.97
2022-10-04T13:18:30.772Z,100308.16
2022-10-04T13:20:51.064Z,100307.66
2022-10-04T13:23:01.656Z,100312.66
2022-10-04T13:25:38.653Z,100310.75
2022-10-04T13:27:50.100Z,100302.50
2022-10-04T13:30:02.669Z,100305.50
2022-10-04T13:32:14.847Z,100289.03
2022-10-04T13:34:27.260Z,100313.47
2022-10-04T13:36:46.694Z,100316.31
2022-10-04T13:39:16.137Z,100328.16
2022-10-04T13:41:33.505Z,100317.06
2022-10-04T13:44:03.708Z,100319.91
2022-10-04T13:46:20.242Z,100306.84
2022-10-04T13:48:42.533Z,100308.31
2022-10-04T13:51:03.069Z,100297.75
2022-10-04T13:53:40.283Z,100289.47
2022-10-04T13:56:07.103Z,100267.66
2022-10-04T13:58:26.254Z,100289.41
2022-10-04T14:00:52.828Z,100280.66
2022-10-04T14:03:23.630Z,100271.25
2022-10-04T14:06:14.000Z,100253.00
2022-10-04T14:09:00.042Z,100259.50
2022-10-04T14:11:28.049Z,100286.28
2022-10-04T14:13:55.753Z,100299.34
2022-10-04T14:16:19.342Z,100292.28
2022-10-04T14:18:36.474Z,100291.94
2022-10-04T14:21:19.163Z,100294.91
2022-10-04T14:23:48.709Z,100284.81
2022-10-04T14:26:34.470Z,100261.06
2022-10-04T14:29:07.726Z,100235.28
2022-10-04T14:31:43.101Z,100238.94
2022-10-04T14:34:20.788Z,100252.16
2022-10-04T14:36:44.354Z,100249.88
2022-10-04T14:39:02.555Z,100238.69
2022-10-04T14:41:37.000Z,100232.19
2022-10-04T14:44:41.609Z,100234.44
2022-10-04T14:47:02.035Z,100241.81
2022-10-04T14:49:22.946Z,100247.88
2022-10-04T14:51:38.520Z,100252.09
2022-10-04T14:53:54.311Z,100260.94
2022-10-04T14:56:17.329Z,100264.59
2022-10-04T14:58:31.352Z,100261.94
2022-10-04T15:00:50.886Z,100263.63
2022-10-04T15:03:15.446Z,100258.59
2022-10-04T15:05:44.675Z,100257.88
2022-10-04T15:07:52.287Z,100264.09
2022-10-04T15:09:59.136Z,100275.78
2022-10-04T15:13:09.328Z,100270.44
2022-10-04T15:15:37.274Z,100273.28
2022-10-04T15:17:55.731Z,100268.22
2022-10-04T15:20:10.023Z,100272.19
2022-10-04T15:22:17.736Z,100268.84
2022-10-04T15:24:29.924Z,100262.09
2022-10-04T15:26:55.960Z,100255.38
2022-10-04T15:29:24.330Z,100251.34
2022-10-04T15:31:36.006Z,100246.44
2022-10-04T15:33:59.708Z,100241.22
2022-10-04T15:36:40.371Z,100244.22
2022-10-04T15:38:57.664Z,100235.53
2022-10-04T15:41:08.173Z,100236.66
2022-10-04T15:43:28.839Z,100234.97
2022-10-04T15:45:57.327Z,100234.16
2022-10-04T15:48:38.935Z,100234.97
2022-10-04T15:50:57.067Z,100232.31
2022-10-04T15:53:30.962Z,100228.78
2022-10-04T15:56:00.161Z,100219.09
2022-10-04T15:58:31.522Z,100225.41
2022-10-04T16:00:48.397Z,100222.91
2022-10-04T16:03:20.557Z,100218.38
2022-10-04T16:05:39.622Z,100215.03
2022-10-04T16:08:01.637Z,100212.19
2022-10-04T16:10:19.307Z,100204.34
2022-10-04T16:12:29.519Z,100207.84
2022-10-04T16:15:02.015Z,100199.81
2022-10-04T16:18:00.624Z,100190.25
2022-10-04T16:20:22.158Z,100178.88
2022-10-04T16:22:30.496Z,100187.22
2022-10-04T16:24:45.827Z,100183.84
2022-10-04T16:27:43.031Z,100180.50
2022-10-04T16:30:21.716Z,100181.50
2022-10-04T16:32:24.281Z,100184.16
2022-10-04T16:34:41.924Z,100184.16
2022-10-04T16:36:52.764Z,100183.31
2022-10-04T16:39:18.979Z,100179.97
2022-10-04T16:41:37.005Z,100165.22
2022-10-04T16:43:53.231Z,100157.78
2022-10-04T16:46:23.318Z,100158.25
2022-10-04T16:48:36.423Z,100148.84
2022-10-04T16:50:58.005Z,100141.22
2022-10-04T16:53:21.870Z,100144.59
2022-10-04T16:55:53.510Z,100140.41
2022-10-04T16:58:38.728Z,100150.94
2022-10-04T17:00:42.742Z,100152.63
2022-10-04T17:03:09.245Z,100155.97
2022-10-04T17:05:50.445Z,100155.97
2022-10-04T17:08:11.641Z,100141.63
2022-10-04T17:10:28.883Z,100141.94
2022-10-04T17:12:45.821Z,100148.28
2022-10-04T17:14:59.022Z,100135.72
2022-10-04T17:17:03.318Z,100138.56
2022-10-04T17:19:32.121Z,100135.88
2022-10-04T17:21:44.950Z,100140.56
2022-10-04T17:24:11.272Z,100134.50
2022-10-04T17:26:30.420Z,100131.84
2022-10-04T17:28:46.697Z,100123.97
2022-10-04T17:31:00.410Z,100122.44
2022-10-04T17:33:18.758Z,100115.88
2022-10-04T17:36:07.554Z,100123.50
2022-10-04T17:38:19.240Z,100111.44
2022-10-04T17:40:36.604Z,100113.59
2022-10-04T17:42:49.728Z,100108.50
2022-10-04T17:45:09.269Z,100110.66
2022-10-04T17:47:21.540Z,100113.50
2022-10-04T17:49:55.607Z,100124.44
2022-10-04T17:52:23.236Z,100121.09
2022-10-04T17:54:49.936Z,100133.06
2022-10-04T17:57:12.548Z,100136.31
2022-10-04T17:59:21.928Z,100128.59
2022-10-04T18:01:31.961Z,100120.91
2022-10-04T18:03:41.505Z,100122.84
2022-10-04T18:05:51.694Z,100110.78
2022-10-04T18:08:04.583Z,100087.78
2022-10-04T18:10:24.366Z,100078.38
2022-10-04T18:12:33.997Z,100080.19
2022-10-04T18:14:55.856Z,100083.03
2022-10-04T18:17:24.759Z,100081.63
2022-10-04T18:19:41.781Z,100097.94
2022-10-04T18:21:53.030Z,100088.41
2022-10-04T18:24:01.334Z,100085.88
2022-10-04T18:26:17.628Z,100096.56
2022-10-04T18:28:22.805Z,100086.72
2022-10-04T18:30:26.860Z,100080.56
2022-10-04T18:32:35.366Z,100076.19
2022-10-04T18:34:40.700Z,100067.34
2022-10-04T18:36:59.036Z,100063.00
2022-10-04T18:39:07.596Z,100050.63
2022-10-04T18:41:20.314Z,100049.81
2022-10-04T18:43:27.595Z,100045.44
2022-10-04T18:45:32.535Z,100040.13
2022-10-04T18:47:38.494Z,100047.13
2022-10-04T18:49:51.262Z,100041.81
2022-10-04T18:52:20.337Z,100033.81
2022-10-04T18:54:34.400Z,100041.66
2022-10-04T18:56:49.529Z,100032.50
2022-10-04T18:59:33.772Z,100032.50
2022-10-04T19:02:03.776Z,100009.47
2022-10-04T19:04:16.233Z,100007.63
2022-10-04T19:06:26.967Z,100007.50
2022-10-04T19:08:41.303Z,99995.81
2022-10-04T19:10:50.587Z,99987.66
2022-10-04T19:13:16.367Z,99988.53
2022-10-04T19:15:42.868Z,99982.22
2022-10-04T19:17:59.227Z,99994.53
2022-10-04T19:20:07.915Z,99990.06
2022-10-04T19:22:27.087Z,99997.06
2022-10-04T19:24:50.623Z,100013.06
2022-10-04T19:27:03.554Z,100008.91
2022-10-04T19:29:20.335Z,100011.56
2022-10-04T19:31:34.450Z,100008.03
2022-10-04T19:33:50.440Z,100007.22
2022-10-04T19:36:18.694Z,99992.19
2022-10-04T19:38:51.239Z,99991.50
2022-10-04T19:41:05.668Z,100000.78
2022-10-04T19:43:12.750Z,99988.44
2022-10-04T19:45:34.173Z,99978.75
2022-10-04T19:47:49.982Z,99978.75
2022-10-04T19:50:02.831Z,99970.72
2022-10-04T19:52:22.572Z,99961.03
2022-10-04T19:54:35.401Z,99946.88
2022-10-04T19:56:50.064Z,99943.38
2022-10-04T19:59:02.240Z,99945.19
2022-10-04T20:01:14.190Z,99950.53
2022-10-04T20:03:19.151Z,99935.38
2022-10-04T20:05:25.524Z,99947.69
2022-10-04T20:07:31.058Z,99945.03
2022-10-04T20:09:55.102Z,99926.34
2022-10-04T20:12:00.920Z,99929.03
2022-10-04T20:14:57.504Z,99928.88
2022-10-04T20:17:08.185Z,99927.06
2022-10-04T20:19:23.535Z,99930.56
2022-10-04T20:21:34.653Z,99931.41
2022-10-04T20:23:57.056Z,99919.06
2022-10-04T20:26:03.148Z,99916.22
2022-10-04T20:28:07.586Z,99920.03
2022-10-04T20:30:15.383Z,99921.88
2022-10-04T20:32:52.198Z,99926.34
2022-10-04T20:35:00.983Z,99926.34
2022-10-04T20:37:08.985Z,99915.69
2022-10-04T20:40:00.284Z,99920.03
2022-10-04T20:42:23.113Z,99928.03
2022-10-04T20:44:56.324Z,99924.38
2022-10-04T20:47:01.145Z,99921.72
2022-10-04T20:49:07.705Z,99908.38
2022-10-04T20:51:21.811Z,99912.03
2022-10-04T20:53:30.070Z,99921.88
2022-10-04T20:55:36.789Z,99917.38
2022-10-04T20:57:42.472Z,99921.00
2022-10-04T20:59:49.234Z,99905.00
2022-10-04T21:02:05.646Z,99897.00
2022-10-04T21:04:30.530Z,99898.84
2022-10-04T21:06:53.027Z,99887.34
2022-10-04T21:08:57.686Z,99899.66
2022-10-04T21:11:22.508Z,99894.34
2022-10-04T21:13:46.169Z,99885.66
2022-10-04T21:16:00.002Z,99883.00
2022-10-04T21:18:06.622Z,99879.34
2022-10-04T21:20:17.308Z,99886.47
2022-10-04T21:22:40.553Z,99875.81
2022-10-04T21:24:55.599Z,99870.47
2022-10-04T21:27:00.889Z,99876.66
2022-10-04T21:29:06.617Z,99871.34
2022-10-04T21:31:11.730Z,99864.31
2022-10-04T21:33:16.637Z,99859.81
2022-10-04T21:35:20.978Z,99861.50
2022-10-04T21:37:26.656Z,99857.13
2022-10-04T21:39:32.795Z,99853.47
2022-10-04T21:41:37.868Z,99848.97
2022-10-04T21:43:41.919Z,99833.97
2022-10-04T21:45:46.842Z,99844.66
2022-10-04T21:47:50.875Z,99835.78
2022-10-04T21:49:55.432Z,99837.47
2022-10-04T21:51:59.577Z,99835.63
2022-10-04T21:54:03.782Z,99826.78
2022-10-04T21:56:09.169Z,99830.28
2022-10-04T21:58:13.474Z,99830.28
2022-10-04T22:00:17.415Z,99815.28
2022-10-04T22:02:21.298Z,99819.63
2022-10-04T22:04:24.947Z,99808.94
2022-10-04T22:06:28.595Z,99821.31
2022-10-04T22:08:32.245Z,99817.66
2022-10-04T22:10:36.106Z,99804.47
2022-10-04T22:12:41.286Z,99812.47
2022-10-04T22:14:45.035Z,99814.97
2022-10-04T22:16:49.420Z,99798.97
2022-10-04T22:18:53.908Z,99800.66
2022-10-04T22:20:57.771Z,99795.16
2022-10-04T22:23:19.708Z,99795.00
2022-10-04T22:25:25.191Z,99790.34
2022-10-04T22:27:31.188Z,99793.88
2022-10-04T22:29:37.130Z,99789.34
2022-10-04T22:31:44.075Z,99788.38
2022-10-04T22:33:50.571Z,99792.84
2022-10-04T22:35:57.074Z,99784.00
2022-10-04T22:38:01.994Z,99789.34
2022-10-04T22:40:07.463Z,99781.34
2022-10-04T22:42:15.322Z,99774.31
2022-10-04T22:44:21.520Z,99771.66
2022-10-04T22:46:33.988Z,99778.69
2022-10-04T22:48:38.344Z,99775.34
2022-10-04T22:50:42.216Z,99777.16
2022-10-04T22:52:45.872Z,99767.63
2022-10-04T22:54:52.460Z,99760.63
2022-10-04T22:56:58.090Z,99759.78
2022-10-04T22:59:01.875Z,99752.91
2022-10-04T23:01:11.284Z,99754.75
2022-10-04T23:03:26.481Z,99744.91
2022-10-04T23:05:30.233Z,99741.56
2022-10-04T23:07:38.174Z,99734.56
2022-10-04T23:09:42.787Z,99733.72
2022-10-04T23:11:47.282Z,99734.56
2022-10-04T23:13:50.984Z,99723.88
2022-10-04T23:15:57.776Z,99726.72
2022-10-04T23:18:01.656Z,99723.06
2022-10-04T23:20:12.966Z,99712.38
2022-10-04T23:22:19.064Z,99714.88
2022-10-04T23:24:24.396Z,99697.03
2022-10-04T23:26:34.428Z,99701.38
2022-10-04T23:28:38.781Z,99699.53
2022-10-04T23:30:43.082Z,99711.75
2022-10-04T23:32:48.983Z,99714.25
2022-10-04T23:34:56.627Z,99714.25
2022-10-04T23:37:02.194Z,99710.44
2022-10-04T23:39:13.478Z,99719.31
2022-10-04T23:41:20.259Z,99705.97
2022-10-04T23:43:27.022Z,99698.94
2022-10-04T23:45:31.014Z,99689.94
2022-10-04T23:47:36.059Z,99682.06
2022-10-04T23:49:39.787Z,99677.59
2022-10-04T23:51:44.139Z,99669.59
2022-10-04T23:53:51.301Z,99674.91
2022-10-04T23:55:56.460Z,99678.41
2022-10-04T23:58:01.283Z,99668.59
